Time;durP1;ratioP1;P1;durP2;ratioP2;P2;SDS_P1;SDS_P2;PMS_P1;PMS_P2;Temp;Humidity;BMP_temperature;BMP_pressure;BME280_temperature;BME280_humidity;BME280_pressure;Samples;Min_cycle;Max_cycle;Signal;HPM_P1;HPM_P2
2021/04/12 00:01:49;;;;;;;6.22;4.43;;;;;;;;;;5104949;28;20555;-78
2021/04/12 00:04:47;;;;;;;7.05;4.55;;;;;;;;;;5106361;28;20030;-78
2021/04/12 00:07:20;;;;;;;7.22;4.35;;;;;;;;;;5107993;28;20036;-79
2021/04/12 00:09:59;;;;;;;7.65;4.97;;;;;;;;;;5121609;28;20036;-79
2021/04/12 00:12:49;;;;;;;6.07;3.80;;;;;;;;;;5130956;28;20039;-79
2021/04/12 00:15:30;;;;;;;7.78;3.60;;;;;;;;;;5131471;28;20405;-78
2021/04/12 00:18:00;;;;;;;6.70;4.15;;;;;;;;;;5129615;27;20036;-79
2021/04/12 00:20:33;;;;;;;10.05;3.85;;;;;;;;;;5129236;28;20035;-78
2021/04/12 00:23:06;;;;;;;6.60;3.58;;;;;;;;;;5129865;28;20089;-78
2021/04/12 00:25:48;;;;;;;6.75;3.70;;;;;;;;;;5130103;28;20393;-78
2021/04/12 00:28:19;;;;;;;5.10;3.58;;;;;;;;;;5130149;28;20439;-78
2021/04/12 00:30:51;;;;;;;9.63;4.85;;;;;;;;;;5129479;28;20131;-78
2021/04/12 00:33:22;;;;;;;5.57;3.40;;;;;;;;;;5129001;28;20552;-78
2021/04/12 00:35:54;;;;;;;7.00;2.83;;;;;;;;;;5128263;28;20057;-78
2021/04/12 00:38:53;;;;;;;5.72;3.08;;;;;;;;;;5128346;28;20050;-78
2021/04/12 00:42:00;;;;;;;6.13;3.20;;;;;;;;;;5087425;28;20480;-78
2021/04/12 00:44:48;;;;;;;9.40;2.67;;;;;;;;;;5063228;28;20079;-78
2021/04/12 00:47:27;;;;;;;5.35;2.80;;;;;;;;;;5087037;28;20056;-78
2021/04/12 00:50:01;;;;;;;3.30;2.30;;;;;;;;;;5087102;28;20064;-78
2021/04/12 00:52:45;;;;;;;6.63;2.70;;;;;;;;;;5085144;28;20092;-78
2021/04/12 00:55:38;;;;;;;5.05;2.90;;;;;;;;;;5086089;28;20032;-78
2021/04/12 00:58:41;;;;;;;4.60;2.70;;;;;;;;;;5086768;28;20444;-78
2021/04/12 01:01:12;;;;;;;3.17;2.60;;;;;;;;;;5085570;28;20074;-78
2021/04/12 01:03:54;;;;;;;5.32;2.40;;;;;;;;;;5084282;28;20025;-78
2021/04/12 01:06:57;;;;;;;4.20;2.83;;;;;;;;;;5086132;28;20398;-78
2021/04/12 01:10:11;;;;;;;3.88;2.90;;;;;;;;;;5092765;28;20127;-78
2021/04/12 01:13:01;;;;;;;8.18;3.17;;;;;;;;;;5105915;28;20048;-78
2021/04/12 01:16:04;;;;;;;10.90;3.53;;;;;;;;;;5111261;28;20046;-78
2021/04/12 01:18:56;;;;;;;8.00;2.90;;;;;;;;;;5110059;28;20028;-78
2021/04/12 01:21:30;;;;;;;10.45;3.67;;;;;;;;;;5109520;28;20047;-78
2021/04/12 01:24:20;;;;;;;7.50;2.72;;;;;;;;;;5109293;28;20024;-78
2021/04/12 01:27:08;;;;;;;4.93;3.00;;;;;;;;;;5109296;28;20074;-78
2021/04/12 01:30:04;;;;;;;7.13;2.85;;;;;;;;;;5107117;28;20065;-78
2021/04/12 01:32:48;;;;;;;8.23;2.78;;;;;;;;;;5108613;28;20497;-78
2021/04/12 01:35:29;;;;;;;6.13;2.78;;;;;;;;;;5107356;28;20503;-78
2021/04/12 01:38:25;;;;;;;3.50;2.42;;;;;;;;;;5106745;28;20488;-78
2021/04/12 01:41:04;;;;;;;6.00;2.45;;;;;;;;;;5109142;28;20459;-78
2021/04/12 01:43:48;;;;;;;6.63;2.50;;;;;;;;;;5111361;28;20118;-78
2021/04/12 01:46:19;;;;;;;5.45;2.33;;;;;;;;;;5094143;28;20040;-77
2021/04/12 01:48:46;;;;;;;5.35;2.28;;;;;;;;;;5095262;28;20032;-77
2021/04/12 01:51:49;;;;;;;4.78;2.30;;;;;;;;;;5095161;28;20039;-77
2021/04/12 01:54:41;;;;;;;8.85;2.47;;;;;;;;;;5093799;28;20081;-77
2021/04/12 01:57:45;;;;;;;3.22;2.00;;;;;;;;;;5094808;28;20053;-77
2021/04/12 02:00:33;;;;;;;1.90;1.70;;;;;;;;;;5095435;28;20410;-77
2021/04/12 02:03:23;;;;;;;3.75;1.80;;;;;;;;;;5094710;28;20040;-78
2021/04/12 02:06:33;;;;;;;5.38;1.90;;;;;;;;;;5093450;28;20036;-78
2021/04/12 02:09:12;;;;;;;5.78;1.45;;;;;;;;;;5076873;28;20051;-78
2021/04/12 02:12:09;;;;;;;1.52;1.40;;;;;;;;;;5084755;28;20039;-78
2021/04/12 02:14:43;;;;;;;2.40;1.60;;;;;;;;;;5081060;28;20048;-77
2021/04/12 02:17:26;;;;;;;5.57;1.70;;;;;;;;;;5094240;28;20091;-77
2021/04/12 02:20:12;;;;;;;5.13;1.58;;;;;;;;;;5094178;28;20135;-77
2021/04/12 02:22:57;;;;;;;6.15;1.50;;;;;;;;;;5094364;28;20036;-77
2021/04/12 02:26:03;;;;;;;4.90;1.98;;;;;;;;;;5093389;28;20042;-77
2021/04/12 02:28:50;;;;;;;3.38;1.80;;;;;;;;;;5093994;28;20093;-77
2021/04/12 02:31:40;;;;;;;6.47;2.28;;;;;;;;;;5093154;28;20044;-77
2021/04/12 02:34:08;;;;;;;9.27;3.08;;;;;;;;;;5093926;28;20032;-78
2021/04/12 02:37:12;;;;;;;5.78;1.88;;;;;;;;;;5094244;28;20028;-77
2021/04/12 02:40:20;;;;;;;5.65;2.28;;;;;;;;;;5093399;28;20077;-77
2021/04/12 02:43:08;;;;;;;7.72;1.90;;;;;;;;;;5101495;28;20062;-77
2021/04/12 02:45:36;;;;;;;6.63;2.47;;;;;;;;;;5114039;28;20038;-77
2021/04/12 02:48:06;;;;;;;8.57;2.95;;;;;;;;;;5114175;28;20070;-77
2021/04/12 02:50:58;;;;;;;6.28;3.10;;;;;;;;;;5114049;28;20515;-77
2021/04/12 02:53:51;;;;;;;7.00;2.67;;;;;;;;;;5113784;28;20035;-77
2021/04/12 02:56:34;;;;;;;6.82;2.70;;;;;;;;;;5113497;28;20042;-77
2021/04/12 02:59:37;;;;;;;11.50;2.90;;;;;;;;;;5114064;28;20068;-77
2021/04/12 03:02:30;;;;;;;3.47;2.50;;;;;;;;;;5112873;28;20032;-77
2021/04/12 03:05:14;;;;;;;7.35;2.70;;;;;;;;;;5112853;28;20035;-77
2021/04/12 03:07:51;;;;;;;10.23;3.05;;;;;;;;;;5113938;28;20023;-77
2021/04/12 03:10:38;;;;;;;5.35;2.67;;;;;;;;;;5114163;28;20047;-77
2021/04/12 03:13:43;;;;;;;8.02;2.63;;;;;;;;;;5103015;28;20032;-77
2021/04/12 03:16:37;;;;;;;8.00;2.30;;;;;;;;;;5093762;28;20500;-77
2021/04/12 03:19:22;;;;;;;7.00;2.70;;;;;;;;;;5093986;28;20039;-77
2021/04/12 03:22:09;;;;;;;4.97;2.72;;;;;;;;;;5073814;28;20029;-77
2021/04/12 03:25:18;;;;;;;8.05;2.88;;;;;;;;;;5072742;28;20397;-77
2021/04/12 03:28:10;;;;;;;7.68;2.65;;;;;;;;;;5075269;28;20036;-77
2021/04/12 03:30:57;;;;;;;13.07;3.38;;;;;;;;;;5075553;28;20052;-77
2021/04/12 03:34:01;;;;;;;5.53;2.60;;;;;;;;;;5075714;28;20041;-77
2021/04/12 03:36:35;;;;;;;7.43;3.03;;;;;;;;;;5075541;28;20043;-77
2021/04/12 03:39:03;;;;;;;8.95;2.90;;;;;;;;;;5075603;28;20036;-77
2021/04/12 03:42:00;;;;;;;5.05;2.70;;;;;;;;;;5075233;28;20047;-77
2021/04/12 03:44:37;;;;;;;7.15;2.78;;;;;;;;;;5075860;28;20025;-77
2021/04/12 03:47:02;;;;;;;7.03;2.75;;;;;;;;;;5076839;28;20036;-77
2021/04/12 03:50:04;;;;;;;6.03;2.45;;;;;;;;;;5077813;28;20036;-78
2021/04/12 03:52:38;;;;;;;6.60;2.55;;;;;;;;;;5096324;28;20402;-77
2021/04/12 03:55:28;;;;;;;6.18;2.50;;;;;;;;;;5096009;28;20126;-77
2021/04/12 03:58:26;;;;;;;3.88;1.83;;;;;;;;;;5095943;28;20028;-78
2021/04/12 04:01:13;;;;;;;6.13;2.40;;;;;;;;;;5096067;28;20031;-77
2021/04/12 04:03:52;;;;;;;5.78;2.45;;;;;;;;;;5096395;28;20081;-77
2021/04/12 04:06:17;;;;;;;6.95;2.80;;;;;;;;;;5096104;28;20044;-77
2021/04/12 04:08:50;;;;;;;6.43;3.03;;;;;;;;;;5096287;28;20107;-77
2021/04/12 04:11:25;;;;;;;7.25;2.72;;;;;;;;;;5103450;28;20035;-77
2021/04/12 04:14:08;;;;;;;5.80;2.50;;;;;;;;;;5116174;28;20031;-77
2021/04/12 04:16:41;;;;;;;10.15;2.83;;;;;;;;;;5116141;28;20074;-77
2021/04/12 04:19:40;;;;;;;3.08;2.35;;;;;;;;;;5116311;28;20035;-77
2021/04/12 04:22:27;;;;;;;3.63;1.90;;;;;;;;;;5114840;28;20035;-77
2021/04/12 04:25:13;;;;;;;4.53;2.92;;;;;;;;;;5114266;28;20028;-77
2021/04/12 04:27:45;;;;;;;5.45;2.05;;;;;;;;;;5115773;28;20123;-77
2021/04/12 04:30:33;;;;;;;3.78;2.40;;;;;;;;;;5115063;28;20055;-77
2021/04/12 04:33:29;;;;;;;8.23;2.17;;;;;;;;;;5115834;28;20035;-77
2021/04/12 04:36:42;;;;;;;3.53;2.10;;;;;;;;;;5114890;28;20409;-77
2021/04/12 04:39:16;;;;;;;5.93;2.40;;;;;;;;;;5103645;28;20039;-77
2021/04/12 04:42:25;;;;;;;6.75;2.55;;;;;;;;;;5082834;28;20033;-77
2021/04/12 04:45:00;;;;;;;5.18;2.75;;;;;;;;;;5074752;28;20123;-77
2021/04/12 04:47:26;;;;;;;11.63;2.90;;;;;;;;;;5074812;28;20541;-77
2021/04/12 04:50:23;;;;;;;6.82;2.90;;;;;;;;;;5074541;28;20067;-77
2021/04/12 04:52:54;;;;;;;;;;;;;;;;;;5075152;28;20082;-78
2021/04/12 04:55:42;;;;;;;8.60;2.80;;;;;;;;;;5078642;28;19974;-77
2021/04/12 04:58:34;;;;;;;4.45;2.78;;;;;;;;;;5075806;28;20038;-77
2021/04/12 05:01:18;;;;;;;5.70;3.03;;;;;;;;;;5068325;28;20041;-77
2021/04/12 05:04:15;;;;;;;8.57;2.88;;;;;;;;;;5075356;28;20091;-77
2021/04/12 05:06:51;;;;;;;11.05;3.40;;;;;;;;;;5075514;28;20127;-77
2021/04/12 05:09:38;;;;;;;10.00;3.20;;;;;;;;;;5076316;28;20427;-77
2021/04/12 05:12:10;;;;;;;8.60;3.78;;;;;;;;;;5092682;28;20079;-77
2021/04/12 05:15:02;;;;;;;6.45;3.33;;;;;;;;;;5093129;28;20036;-77
2021/04/12 05:18:01;;;;;;;10.73;4.20;;;;;;;;;;5095744;28;20043;-77
2021/04/12 05:20:41;;;;;;;8.18;4.72;;;;;;;;;;5094739;28;20035;-77
2021/04/12 05:23:25;;;;;;;18.27;5.22;;;;;;;;;;5094814;28;20032;-77
2021/04/12 05:26:14;;;;;;;7.80;3.75;;;;;;;;;;5093061;28;20036;-77
2021/04/12 05:28:57;;;;;;;7.15;3.95;;;;;;;;;;5095434;28;20046;-77
2021/04/12 05:31:26;;;;;;;9.88;4.38;;;;;;;;;;5093271;28;20173;-77
2021/04/12 05:34:44;;;;;;;10.98;3.97;;;;;;;;;;5093326;28;20039;-77
2021/04/12 05:37:35;;;;;;;7.63;4.18;;;;;;;;;;5081735;28;20044;-77
2021/04/12 05:40:12;;;;;;;7.00;4.88;;;;;;;;;;5095034;28;20044;-78
2021/04/12 05:42:52;;;;;;;10.77;4.72;;;;;;;;;;5075472;28;20036;-77
2021/04/12 05:45:48;;;;;;;9.60;4.60;;;;;;;;;;5075457;28;20041;-77
2021/04/12 05:48:37;;;;;;;7.75;5.35;;;;;;;;;;5073048;28;20032;-77
2021/04/12 05:51:16;;;;;;;5.85;4.93;;;;;;;;;;5074044;28;20043;-77
2021/04/12 05:54:03;;;;;;;11.93;5.63;;;;;;;;;;5073592;28;20086;-78
2021/04/12 05:56:39;;;;;;;11.52;6.68;;;;;;;;;;5073708;28;20364;-77
2021/04/12 05:59:18;;;;;;;11.10;5.65;;;;;;;;;;5072449;28;20480;-77
2021/04/12 06:02:01;;;;;;;11.48;5.93;;;;;;;;;;5074307;28;20032;-77
2021/04/12 06:05:04;;;;;;;11.68;6.28;;;;;;;;;;5073730;28;20119;-76
2021/04/12 06:07:55;;;;;;;12.60;6.43;;;;;;;;;;5072003;28;20091;-77
2021/04/12 06:10:50;;;;;;;11.98;5.82;;;;;;;;;;5073416;28;20041;-77
2021/04/12 06:13:53;;;;;;;12.00;6.20;;;;;;;;;;5071636;28;20036;-77
2021/04/12 06:16:52;;;;;;;10.10;6.10;;;;;;;;;;5073480;28;20378;-77
2021/04/12 06:19:34;;;;;;;9.98;6.10;;;;;;;;;;5074263;28;20040;-78
2021/04/12 06:22:17;;;;;;;11.90;5.97;;;;;;;;;;5074223;28;20051;-77
2021/04/12 06:24:56;;;;;;;9.70;6.07;;;;;;;;;;5073380;28;20031;-77
2021/04/12 06:27:44;;;;;;;8.15;5.82;;;;;;;;;;5072882;28;20482;-77
2021/04/12 06:30:33;;;;;;;9.45;5.70;;;;;;;;;;5073275;28;20071;-77
2021/04/12 06:33:11;;;;;;;11.77;6.03;;;;;;;;;;5071926;28;20095;-78
2021/04/12 06:35:55;;;;;;;8.38;5.38;;;;;;;;;;5074286;28;20127;-77
2021/04/12 06:38:41;;;;;;;17.23;5.97;;;;;;;;;;5074095;28;20359;-78
2021/04/12 06:41:32;;;;;;;11.25;6.57;;;;;;;;;;5072881;28;20075;-77
2021/04/12 06:44:06;;;;;;;7.82;5.25;;;;;;;;;;5075876;28;20039;-77
2021/04/12 06:47:12;;;;;;;7.78;5.38;;;;;;;;;;5074720;28;20505;-77
2021/04/12 06:50:04;;;;;;;7.38;5.13;;;;;;;;;;5072319;28;20089;-77
2021/04/12 06:53:14;;;;;;;8.50;5.22;;;;;;;;;;5073878;28;20372;-77
2021/04/12 06:55:52;;;;;;;10.80;5.00;;;;;;;;;;5066963;28;20066;-77
2021/04/12 06:59:10;;;;;;;9.15;5.25;;;;;;;;;;5071611;28;20120;-77
2021/04/12 07:02:13;;;;;;;7.78;5.72;;;;;;;;;;5054438;28;20047;-77
2021/04/12 07:04:57;;;;;;;11.13;5.68;;;;;;;;;;5055189;28;20095;-77
2021/04/12 07:08:15;;;;;;;9.38;4.63;;;;;;;;;;5077989;28;20035;-78
2021/04/12 07:11:05;;;;;;;13.15;4.43;;;;;;;;;;5092077;28;20424;-84
2021/04/12 07:13:58;;;;;;;8.57;4.10;;;;;;;;;;5098676;28;20519;-80
2021/04/12 07:16:50;;;;;;;5.93;3.72;;;;;;;;;;5100254;28;20118;-79
2021/04/12 07:19:53;;;;;;;5.38;3.85;;;;;;;;;;5100230;28;20115;-77
2021/04/12 07:22:18;;;;;;;8.02;3.90;;;;;;;;;;5102027;28;20035;-79
2021/04/12 07:24:55;;;;;;;8.43;3.95;;;;;;;;;;5100958;28;20024;-80
2021/04/12 07:27:37;;;;;;;8.60;3.80;;;;;;;;;;5100374;28;20040;-81
2021/04/12 07:30:35;;;;;;;8.45;4.03;;;;;;;;;;5084703;28;20071;-79
2021/04/12 07:33:13;;;;;;;8.85;3.63;;;;;;;;;;5081000;28;20047;-79
2021/04/12 07:36:16;;;;;;;13.15;3.90;;;;;;;;;;5101318;28;20113;-80
2021/04/12 07:39:18;;;;;;;5.88;3.13;;;;;;;;;;5093668;28;20414;-80
2021/04/12 07:42:14;;;;;;;7.95;3.05;;;;;;;;;;5103191;28;20134;-80
2021/04/12 07:44:46;;;;;;;6.85;3.00;;;;;;;;;;5109792;28;20044;-79
2021/04/12 07:47:40;;;;;;;5.10;2.78;;;;;;;;;;5105675;28;20040;-80
2021/04/12 07:51:02;;;;;;;5.80;2.53;;;;;;;;;;5103455;28;20028;-78
2021/04/12 07:53:49;;;;;;;10.60;3.30;;;;;;;;;;5084004;28;20045;-80
2021/04/12 07:56:51;;;;;;;8.25;2.60;;;;;;;;;;5070520;28;20033;-79
2021/04/12 07:59:54;;;;;;;6.95;3.03;;;;;;;;;;5090069;28;20044;-79
2021/04/12 08:03:01;;;;;;;9.55;2.90;;;;;;;;;;5087230;28;20040;-79
2021/04/12 08:05:41;;;;;;;8.55;2.88;;;;;;;;;;5088975;28;20464;-79
2021/04/12 08:08:26;;;;;;;4.38;2.55;;;;;;;;;;5088344;28;20553;-79
2021/04/12 08:11:10;;;;;;;7.28;2.83;;;;;;;;;;5108376;28;20085;-79
2021/04/12 08:14:19;;;;;;;5.80;2.80;;;;;;;;;;5126562;28;20035;-79
2021/04/12 08:17:26;;;;;;;4.88;2.63;;;;;;;;;;5128842;28;20055;-79
2021/04/12 08:20:11;;;;;;;8.63;4.15;;;;;;;;;;5126077;28;20067;-79
2021/04/12 08:23:18;;;;;;;9.10;2.20;;;;;;;;;;5139862;28;20039;-79
2021/04/12 08:26:02;;;;;;;10.48;2.55;;;;;;;;;;5130188;28;20043;-79
2021/04/12 08:28:33;;;;;;;6.65;2.70;;;;;;;;;;5135439;28;20031;-79
2021/04/12 08:31:02;;;;;;;7.85;2.10;;;;;;;;;;5134831;28;20079;-80
2021/04/12 08:34:05;;;;;;;5.35;1.90;;;;;;;;;;5134689;28;20039;-80
2021/04/12 08:36:53;;;;;;;8.02;2.17;;;;;;;;;;5132758;28;20035;-80
2021/04/12 08:39:31;;;;;;;4.57;1.73;;;;;;;;;;5118769;28;20130;-79
2021/04/12 08:42:02;;;;;;;6.70;2.22;;;;;;;;;;5112422;28;20067;-79
2021/04/12 08:45:04;;;;;;;5.65;1.70;;;;;;;;;;5112327;28;20032;-80
2021/04/12 08:47:36;;;;;;;4.72;1.80;;;;;;;;;;5109827;28;20070;-80
2021/04/12 08:50:04;;;;;;;6.53;1.65;;;;;;;;;;5110170;28;20100;-80
2021/04/12 08:53:03;;;;;;;7.13;2.13;;;;;;;;;;5111623;28;20440;-80
2021/04/12 08:55:48;;;;;;;5.53;1.70;;;;;;;;;;5109295;28;20493;-80
2021/04/12 08:58:14;;;;;;;4.45;1.60;;;;;;;;;;5110721;28;20104;-80
2021/04/12 09:01:21;;;;;;;5.55;1.52;;;;;;;;;;5109901;28;20035;-80
2021/04/12 09:04:24;;;;;;;4.97;2.05;;;;;;;;;;5090159;28;20040;-79
2021/04/12 09:07:27;;;;;;;4.75;1.50;;;;;;;;;;5090311;28;20064;-79
2021/04/12 09:10:30;;;;;;;4.68;1.73;;;;;;;;;;5117944;28;20055;-79
2021/04/12 09:13:04;;;;;;;4.03;1.50;;;;;;;;;;5128200;28;20031;-79
2021/04/12 09:15:41;;;;;;;5.70;1.48;;;;;;;;;;5128494;28;20035;-80
2021/04/12 09:18:13;;;;;;;4.30;1.73;;;;;;;;;;5126110;28;20038;-79
2021/04/12 09:20:55;;;;;;;7.05;2.28;;;;;;;;;;5126469;28;20054;-80
2021/04/12 09:23:59;;;;;;;2.38;1.20;;;;;;;;;;5124501;28;20523;-79
2021/04/12 09:26:49;;;;;;;2.65;1.15;;;;;;;;;;5085486;28;20058;-77
2021/04/12 09:29:44;;;;;;;3.38;1.13;;;;;;;;;;5119541;28;20020;-80
2021/04/12 09:32:40;;;;;;;6.70;1.45;;;;;;;;;;5121515;28;20138;-78
2021/04/12 09:35:18;;;;;;;8.82;1.35;;;;;;;;;;5122557;28;20028;-80
2021/04/12 09:38:01;;;;;;;1.83;1.10;;;;;;;;;;5121849;28;20055;-80
2021/04/12 09:40:51;;;;;;;3.25;1.10;;;;;;;;;;5105147;28;20040;-80
2021/04/12 09:43:42;;;;;;;2.47;1.00;;;;;;;;;;5086260;28;20051;-82
2021/04/12 09:46:28;;;;;;;5.22;1.25;;;;;;;;;;5079367;28;20083;-79
2021/04/12 09:49:24;;;;;;;3.10;1.23;;;;;;;;;;5079316;28;20123;-80
2021/04/12 09:51:59;;;;;;;3.28;0.90;;;;;;;;;;5078597;28;20039;-81
2021/04/12 09:55:02;;;;;;;4.50;1.23;;;;;;;;;;5077631;28;20553;-78
2021/04/12 09:58:02;;;;;;;5.05;1.50;;;;;;;;;;5080763;28;20060;-77
2021/04/12 10:00:55;;;;;;;3.15;1.10;;;;;;;;;;5079820;28;20508;-78
2021/04/12 10:03:39;;;;;;;6.93;1.48;;;;;;;;;;5077355;28;20024;-78
2021/04/12 10:06:26;;;;;;;4.95;1.40;;;;;;;;;;5076996;28;20028;-79
2021/04/12 10:09:08;;;;;;;3.65;1.20;;;;;;;;;;5077889;28;20078;-79
2021/04/12 10:11:49;;;;;;;2.40;1.10;;;;;;;;;;5077684;28;20040;-79
2021/04/12 10:14:27;;;;;;;4.43;1.60;;;;;;;;;;5076859;28;20386;-79
2021/04/12 10:17:04;;;;;;;5.22;1.70;;;;;;;;;;5091022;28;20032;-81
2021/04/12 10:19:55;;;;;;;6.95;1.58;;;;;;;;;;5094968;28;20032;-80
2021/04/12 10:22:45;;;;;;;3.95;1.48;;;;;;;;;;5095083;28;20048;-79
2021/04/12 10:25:16;;;;;;;4.85;1.73;;;;;;;;;;5095004;28;20042;-80
2021/04/12 10:27:51;;;;;;;3.17;1.25;;;;;;;;;;5095002;28;20456;-76
2021/04/12 10:30:54;;;;;;;4.20;1.03;;;;;;;;;;5096124;28;20051;-77
2021/04/12 10:33:33;;;;;;;1.33;0.90;;;;;;;;;;5094499;28;20037;-79
2021/04/12 10:36:05;;;;;;;4.50;1.00;;;;;;;;;;5096688;28;20031;-79
2021/04/12 10:38:33;;;;;;;3.40;1.30;;;;;;;;;;5096347;28;20028;-79
2021/04/12 10:41:10;;;;;;;6.65;1.58;;;;;;;;;;5093942;28;20097;-78
2021/04/12 10:43:52;;;;;;;7.43;1.90;;;;;;;;;;5095488;28;20500;-78
2021/04/12 10:46:31;;;;;;;2.92;1.30;;;;;;;;;;5093818;28;20038;-78
2021/04/12 10:49:09;;;;;;;4.03;1.38;;;;;;;;;;5095170;28;20055;-77
2021/04/12 10:51:52;;;;;;;3.75;1.60;;;;;;;;;;5094135;28;20111;-78
2021/04/12 10:54:43;;;;;;;6.63;1.63;;;;;;;;;;5092561;28;20032;-77
2021/04/12 10:57:41;;;;;;;8.15;2.00;;;;;;;;;;5095685;28;20051;-76
2021/04/12 11:00:25;;;;;;;2.80;1.30;;;;;;;;;;5073309;28;20041;-78
2021/04/12 11:03:31;;;;;;;3.97;1.73;;;;;;;;;;5094484;28;20040;-78
2021/04/12 11:06:15;;;;;;;3.92;1.52;;;;;;;;;;5093585;28;20417;-78
2021/04/12 11:09:09;;;;;;;4.88;1.65;;;;;;;;;;5083120;28;20077;-79
2021/04/12 11:12:00;;;;;;;3.80;1.42;;;;;;;;;;5086057;28;20040;-78
2021/04/12 11:14:33;;;;;;;5.30;1.30;;;;;;;;;;5082204;28;20064;-75
2021/04/12 11:17:17;;;;;;;3.67;1.38;;;;;;;;;;5081069;28;20046;-77
2021/04/12 11:19:48;;;;;;;4.85;1.65;;;;;;;;;;5081431;28;20028;-79
2021/04/12 11:22:39;;;;;;;3.53;1.55;;;;;;;;;;5084068;28;20102;-78
2021/04/12 11:25:17;;;;;;;4.10;1.50;;;;;;;;;;5081695;28;20025;-77
2021/04/12 11:28:04;;;;;;;3.70;1.63;;;;;;;;;;5081942;28;20111;-77
2021/04/12 11:30:35;;;;;;;2.85;1.48;;;;;;;;;;5084361;28;20064;-76
2021/04/12 11:33:22;;;;;;;4.00;1.33;;;;;;;;;;5086676;28;20035;-77
2021/04/12 11:36:14;;;;;;;4.60;1.60;;;;;;;;;;5095850;28;20039;-78
2021/04/12 11:39:14;;;;;;;3.40;1.25;;;;;;;;;;5096970;28;20043;-77
2021/04/12 11:41:58;;;;;;;3.83;1.50;;;;;;;;;;5099808;28;20410;-78
2021/04/12 11:44:28;;;;;;;5.47;1.70;;;;;;;;;;5104800;28;20032;-80
2021/04/12 11:46:59;;;;;;;3.75;1.40;;;;;;;;;;5103649;28;20024;-79
2021/04/12 11:49:42;;;;;;;2.00;1.10;;;;;;;;;;5103055;28;20056;-80
2021/04/12 11:52:13;;;;;;;2.58;1.27;;;;;;;;;;5099536;28;20397;-78
2021/04/12 11:54:53;;;;;;;2.58;1.20;;;;;;;;;;5104971;28;20114;-77
2021/04/12 11:57:56;;;;;;;1.02;0.85;;;;;;;;;;5102589;28;20036;-80
2021/04/12 12:00:29;;;;;;;2.85;1.00;;;;;;;;;;5108192;28;20028;-78
2021/04/12 12:03:14;;;;;;;1.33;0.77;;;;;;;;;;5115926;28;20020;-81
2021/04/12 12:06:12;;;;;;;4.35;2.30;;;;;;;;;;5115888;28;20039;-81
2021/04/12 12:08:40;;;;;;;3.40;1.20;;;;;;;;;;5108640;28;20100;-81
2021/04/12 12:11:13;;;;;;;2.67;1.00;;;;;;;;;;5114862;28;20382;-79
2021/04/12 12:13:45;;;;;;;6.97;0.95;;;;;;;;;;5114632;28;20069;-79
2021/04/12 12:16:28;;;;;;;2.20;0.93;;;;;;;;;;5113596;28;20032;-79
2021/04/12 12:19:00;;;;;;;1.60;0.80;;;;;;;;;;5113517;28;20429;-80
2021/04/12 12:21:44;;;;;;;1.42;0.82;;;;;;;;;;5115519;28;20028;-79
2021/04/12 12:24:18;;;;;;;2.72;0.88;;;;;;;;;;5114401;28;20053;-79
2021/04/12 12:27:12;;;;;;;1.25;0.63;;;;;;;;;;5113415;28;20402;-79
2021/04/12 12:29:42;;;;;;;4.47;1.00;;;;;;;;;;5111828;28;20020;-79
2021/04/12 12:32:26;;;;;;;3.45;1.30;;;;;;;;;;5113765;28;20044;-79
2021/04/12 12:34:54;;;;;;;4.00;1.00;;;;;;;;;;5107596;28;20028;-78
2021/04/12 12:37:26;;;;;;;2.92;0.75;;;;;;;;;;5113775;28;20034;-79
2021/04/12 12:39:54;;;;;;;1.48;1.02;;;;;;;;;;5117722;28;20489;-78
2021/04/12 12:42:30;;;;;;;2.13;0.93;;;;;;;;;;5133878;28;20087;-79
2021/04/12 12:45:04;;;;;;;1.70;0.93;;;;;;;;;;5132924;28;20023;-78
2021/04/12 12:47:32;;;;;;;3.58;1.55;;;;;;;;;;5133560;28;20035;-78
2021/04/12 12:50:02;;;;;;;2.85;1.45;;;;;;;;;;5133545;28;20069;-79
2021/04/12 12:52:33;;;;;;;3.83;1.10;;;;;;;;;;5133372;28;20058;-79
2021/04/12 12:55:02;;;;;;;2.58;1.00;;;;;;;;;;5114098;28;20040;-78
2021/04/12 12:57:33;;;;;;;3.85;1.50;;;;;;;;;;5114867;28;20039;-79
2021/04/12 13:00:11;;;;;;;3.42;1.80;;;;;;;;;;5132085;28;20031;-79
2021/04/12 13:02:39;;;;;;;3.15;1.48;;;;;;;;;;5132292;28;20032;-78
2021/04/12 13:05:19;;;;;;;3.30;1.45;;;;;;;;;;5114587;28;20043;-79
2021/04/12 13:07:47;;;;;;;3.65;1.10;;;;;;;;;;5109700;28;20044;-79
2021/04/12 13:10:25;;;;;;;1.27;0.70;;;;;;;;;;5106607;28;20107;-81
2021/04/12 13:12:52;;;;;;;0.98;0.60;;;;;;;;;;5090643;28;20043;-80
2021/04/12 13:15:24;;;;;;;1.60;0.55;;;;;;;;;;5078482;28;20033;-79
2021/04/12 13:17:50;;;;;;;1.10;0.60;;;;;;;;;;5077712;28;20429;-80
2021/04/12 13:20:29;;;;;;;1.17;0.50;;;;;;;;;;5083507;28;20107;-80
2021/04/12 13:23:12;;;;;;;1.38;0.85;;;;;;;;;;5091101;28;20054;-80
2021/04/12 13:25:49;;;;;;;5.28;1.10;;;;;;;;;;5093736;28;20040;-81
2021/04/12 13:28:31;;;;;;;1.52;0.73;;;;;;;;;;5092240;28;20052;-81
2021/04/12 13:30:56;;;;;;;5.82;3.17;;;;;;;;;;5089074;28;20041;-82
2021/04/12 13:33:30;;;;;;;2.53;1.85;;;;;;;;;;5083431;28;20410;-83
2021/04/12 13:36:31;;;;;;;2.63;1.13;;;;;;;;;;5063687;28;20466;-83
2021/04/12 13:39:03;;;;;;;2.72;0.90;;;;;;;;;;5076552;28;20045;-83
2021/04/12 13:41:36;;;;;;;2.08;1.33;;;;;;;;;;5084329;28;20063;-81
2021/04/12 13:44:07;;;;;;;2.58;1.30;;;;;;;;;;5104868;28;20032;-80
2021/04/12 13:46:49;;;;;;;1.58;1.10;;;;;;;;;;5103103;28;20389;-79
2021/04/12 13:49:19;;;;;;;2.22;1.23;;;;;;;;;;5104424;28;20044;-79
2021/04/12 13:51:49;;;;;;;3.47;1.20;;;;;;;;;;5103429;28;20405;-79
2021/04/12 13:54:17;;;;;;;2.15;1.10;;;;;;;;;;5103813;28;20072;-79
2021/04/12 13:56:51;;;;;;;2.80;1.00;;;;;;;;;;5105997;28;20035;-79
2021/04/12 13:59:21;;;;;;;1.33;0.90;;;;;;;;;;5109286;28;20058;-79
2021/04/12 14:01:59;;;;;;;2.95;1.20;;;;;;;;;;5106453;28;20032;-79
2021/04/12 14:04:33;;;;;;;1.08;0.80;;;;;;;;;;5105736;28;20031;-79
2021/04/12 14:07:10;;;;;;;4.28;1.98;;;;;;;;;;5106156;28;20040;-79
2021/04/12 14:09:37;;;;;;;;;;;;;;;;;;5104846;28;20054;-78
2021/04/12 14:12:06;;;;;;;;;;;;;;;;;;5087446;28;19918;-79
2021/04/12 14:14:41;;;;;;;;;;;;;;;;;;5107521;28;19920;-78
2021/04/12 14:17:09;;;;;;;;;;;;;;;;;;5103465;28;19919;-77
2021/04/12 14:19:46;;;;;;;;;;;;;;;;;;5096644;28;19912;-77
2021/04/12 14:22:23;;;;;;;;;;;;;;;;;;5094440;28;19919;-77
2021/04/12 14:24:51;;;;;;;;;;;;;;;;;;5093891;28;19912;-77
2021/04/12 14:27:22;;;;;;;;;;;;;;;;;;5093801;28;19924;-77
2021/04/12 14:30:02;;;;;;;;;;;;;;;;;;5093873;28;19918;-78
2021/04/12 14:32:31;;;;;;;;;;;;;;;;;;5093431;28;19919;-77
2021/04/12 14:35:01;;;;;;;;;;;;;;;;;;5093531;28;19963;-77
2021/04/12 14:37:31;;;;;;;;;;;;;;;;;;5093608;28;20014;-77
2021/04/12 14:40:10;;;;;;;;;;;;;;;;;;5093640;28;19912;-77
2021/04/12 14:42:40;;;;;;;;;;;;;;;;;;5092536;28;20251;-77
2021/04/12 14:45:07;;;;;;;;;;;;;;;;;;5093591;28;19919;-77
2021/04/12 14:47:37;;;;;;;;;;;;;;;;;;5092180;28;19908;-77
2021/04/12 14:50:16;;;;;;;;;;;;;;;;;;5093453;28;19912;-77
2021/04/12 14:52:53;;;;;;;;;;;;;;;;;;5093648;28;19916;-77
2021/04/12 14:55:18;;;;;;;;;;;;;;;;;;5093335;28;20012;-77
2021/04/12 14:57:45;;;;;;;;;;;;;;;;;;5093046;28;19962;-77
2021/04/12 15:00:10;;;;;;;;;;;;;;;;;;5093371;28;19919;-77
2021/04/12 15:03:02;;;;;;;;;;;;;;;;;;5093593;28;19916;-78
2021/04/12 15:05:40;;;;;;;;;;;;;;;;;;5092135;28;20007;-76
2021/04/12 15:08:10;;;;;;;;;;;;;;;;;;5093382;28;19975;-76
2021/04/12 15:10:42;;;;;;;;;;;;;;;;;;5092959;28;19930;-76
2021/04/12 15:13:11;;;;;;;;;;;;;;;;;;5092158;28;19923;-76
2021/04/12 15:15:41;;;;;;;;;;;;;;;;;;5093506;28;19919;-76
2021/04/12 15:18:14;;;;;;;;;;;;;;;;;;5093235;28;19958;-76
2021/04/12 15:20:42;;;;;;;;;;;;;;;;;;5094707;28;20017;-76
2021/04/12 15:23:09;;;;;;;;;;;;;;;;;;5096898;28;20305;-76
2021/04/12 15:25:37;;;;;;;;;;;;;;;;;;5097120;28;19998;-77
2021/04/12 15:28:02;;;;;;;;;;;;;;;;;;5096625;28;19911;-76
2021/04/12 15:30:32;;;;;;;;;;;;;;;;;;5097130;28;19942;-77
2021/04/12 15:33:02;;;;;;;;;;;;;;;;;;5096990;28;19947;-76
2021/04/12 15:35:27;;;;;;;;;;;;;;;;;;5096172;28;19912;-77
2021/04/12 15:38:13;;;;;;;;;;;;;;;;;;5099522;28;19912;-77
2021/04/12 15:40:49;;;;;;;;;;;;;;;;;;5098851;28;19916;-79
2021/04/12 15:43:18;;;;;;;;;;;;;;;;;;5101628;28;20303;-76
2021/04/12 15:46:01;;;;;;;;;;;;;;;;;;5100551;28;19922;-78
2021/04/12 15:48:41;;;;;;;;;;;;;;;;;;5100830;28;19915;-77
2021/04/12 15:51:19;;;;;;;;;;;;;;;;;;5097532;28;19955;-77
2021/04/12 15:53:44;;;;;;;;;;;;;;;;;;5098077;28;20328;-78
2021/04/12 15:56:19;;;;;;;;;;;;;;;;;;5096573;28;19915;-77
2021/04/12 15:58:56;;;;;;;;;;;;;;;;;;5096023;28;19912;-77
2021/04/12 16:01:40;;;;;;;;;;;;;;;;;;5096068;28;19947;-77
2021/04/12 16:04:07;;;;;;;;;;;;;;;;;;5094767;28;20361;-77
2021/04/12 16:06:33;;;;;;;;;;;;;;;;;;5095209;28;19947;-77
2021/04/12 16:09:25;;;;;;;;;;;;;;;;;;5096380;28;20003;-77
2021/04/12 16:11:54;;;;;;;;;;;;;;;;;;5094968;28;19918;-77
2021/04/12 16:14:24;;;;;;;;;;;;;;;;;;5095532;28;20023;-78
2021/04/12 16:16:50;;;;;;;;;;;;;;;;;;5107666;28;19912;-79
2021/04/12 16:19:24;;;;;;;;;;;;;;;;;;5104531;28;19977;-77
2021/04/12 16:22:08;;;;;;;;;;;;;;;;;;5099738;28;19915;-79
2021/04/12 16:24:33;;;;;;;;;;;;;;;;;;5100362;28;19975;-79
2021/04/12 16:26:59;;;;;;;;;;;;;;;;;;5099115;28;19979;-77
2021/04/12 16:29:24;;;;;;;;;;;;;;;;;;5100003;28;19916;-79
2021/04/12 16:31:57;;;;;;;;;;;;;;;;;;5099634;28;19916;-79
2021/04/12 16:34:25;;;;;;;;;;;;;;;;;;5099344;28;19983;-77
2021/04/12 16:36:53;;;;;;;;;;;;;;;;;;5099154;28;19918;-78